Arkabutla, MS (38602)

8:53 PM CST on February 12, 2016 (GMT -0600)
NWCC - RC Pugh Library | | Change Station
CLOSE
Current Station
Personal Weather Station
Location: Senatobia, MS
Elevation: 289 ft
Nearby Weather Stations

Elev 289 ft 34.63 °N, 89.97 °W | Updated 10 seconds ago

Clear
Clear
42.6 °F
Feels Like 43 °F
N
0.0
Wind Variable Wind from ESE
Gusts 0.0 mph

Today
High -- | Low -- °F
--% Chance of Precip.
Yesterday
High -- | Low -- °F
Precip. -- in
Pressure 30.37 in
Visibility 10.0 miles
Clouds Clear
Windchill 43 °F
Dew Point 28 °F
Humidity 57%
Rainfall 0.00 in
Snow Depth Not available.
6:49 AM 5:39 PM
Waxing Crescent, 26% visible
METAR KUTA 130235Z AUTO 01008KT 10SM CLR 02/M01 A3037 RMK AO2 TSNO
Pressure 30.37 in
Visibility 10.0 miles
Clouds Clear
Windchill 43 °F
Dew Point 28 °F
Humidity 57%
Rainfall 0.00 in
Snow Depth Not available.
6:49 AM 5:39 PM
Waxing Crescent, 26% visible
METAR KUTA 130235Z AUTO 01008KT 10SM CLR 02/M01 A3037 RMK AO2 TSNO

10-Day Weather Forecast

Almanac

Astronomy

Feb. 12, 2016 Rise Set
Actual Time
Civil Twilight
Nautical Twilight
Astronomical Twilight
Moon
Length of Visible Light
Length of Day
Tomorrow will be .
, % of the Moon is Illuminated

Today's Extremes

State Highs State Lows

Community

WunderPhotos

Upload Photos

1,892,464 photos uploaded!

WunderBlog® & News

Nearby

Air Quality

  Air Quality AQ Index Pollutant
Not available.

Snow Depth

Station Depth Elevation

Earthquake Activity

City Distance Mag. Time & Date
Minimum magnitude displayed is 2.5.

Coastal Water Temperatures

Place Temperature

Stations

Nearby Weather Stations

Station Location Temp. Windchill Dew Point Humidity Wind Precip. Elev Updated Type
                   

Watches & Warnings

There are currently no watches in effect.